Flight Track Log - Related Links

Times and Time Zones

All times are in EDT time to prevent confusion due to time zone crossing. See the C-FPYX flight status page for this flight to view local times or setup timezone preferences in your user account.

Time Position Orientation Groundspeed Altitude Reporting Facility
EDT Latitude Longitude Course Direction KTS MPH feet Rate Location/Type
Mon 11:38:49 AM 41.4331 -82.6325 38° Northeast 66 76 1,200  Level Cleveland Center
Mon 11:40:08 AM 41.4583 -82.6058 38° Northeast 96 110 2,100 647 Climbing Cleveland Center
Mon 11:41:08 AM 41.4756 -82.5869 39° Northeast 82 94 2,700 545 Climbing Cleveland Center
Mon 11:42:09 AM 41.4925 -82.5681 40° Northeast 91 105 3,200 496 Climbing Cleveland Center
Mon 11:43:09 AM 41.5158 -82.5464 35° Northeast 100 115 3,700 520 Climbing Cleveland Center
Mon 11:44:16 AM 41.5431 -82.5281 27° Northeast 97 112 4,300 472 Climbing Cleveland Center
Mon 11:45:16 AM 41.5667 -82.5036 38° Northeast 97 112 4,700 470 Climbing Cleveland Center
Mon 11:46:11 AM 41.5897 -82.4822 35° Northeast 102 117 5,200 500 Climbing Cleveland Center
Mon 11:47:16 AM 41.6194 -82.4608 28° Northeast 102 117 5,700 470 Climbing Cleveland Center
Mon 11:48:06 AM 41.6342 -82.4444 40° Northeast 104 120 6,100 432 Climbing Cleveland Center
Mon 11:49:07 AM 41.6575 -82.4231 34° Northeast 102 117 6,500 440 Climbing Cleveland Center
Mon 11:49:55 AM 41.6764 -82.4069 32° Northeast 104 120 6,900 279 Climbing Cleveland Center
Mon 11:51:16 AM 41.7103 -82.3744 36° Northeast 119 137 7,100 85 Climbing Cleveland Center
Mon 11:52:16 AM 41.7400 -82.3503 31° Northeast 119 137 7,100  Level Cleveland Center
Mon 11:54:16 AM 41.8014 -82.2933 35° Northeast 124 143 7,100  Level Cleveland Center
Mon 11:55:16 AM 41.8308 -82.2664 34° Northeast 124 143 7,100  Level Cleveland Center
Mon 11:56:17 AM 41.8625 -82.2364 35° Northeast 124 143 7,100  Level Cleveland Center
Mon 11:57:16 AM 41.8922 -82.2067 37° Northeast 124 143 7,100 34 Level Cleveland Center
Mon 11:59:16 AM 41.9575 -82.1525 32° Northeast 124 143 7,200  Climbing Cleveland Center
Mon 12:00:16 PM 41.9892 -82.1225 35° Northeast 124 143 7,100 -50 Descending Cleveland Center
Mon 12:01:16 PM 42.0167 -82.0981 33° Northeast 124 143 7,100  Level Cleveland Center
Mon 12:02:16 PM 42.0461 -82.0706 35° Northeast 124 143 7,100  Level Cleveland Center
Mon 12:03:16 PM 42.0758 -82.0433 34° Northeast 124 143 7,100  Level Cleveland Center
Mon 12:04:16 PM 42.1011 -82.0189 36° Northeast 124 143 7,100  Level Cleveland Center
Mon 12:05:16 PM 42.1347 -81.9886 34° Northeast 124 143 7,100  Level Cleveland Center
Mon 12:07:16 PM 42.1939 -81.9339 34° Northeast 124 143 7,100  Level Cleveland Center
Mon 12:08:16 PM 42.2233 -81.9067 34° Northeast 124 143 7,100  Level Cleveland Center
Mon 12:09:16 PM 42.2486 -81.8819 36° Northeast 124 143 7,100  Level Cleveland Center
Mon 12:10:16 PM 42.2781 -81.8572 32° Northeast 124 143 7,100  Level Cleveland Center
Mon 12:11:16 PM 42.3053 -81.8353 31° Northeast 124 143 7,100 50 Level Cleveland Center
Mon 12:12:16 PM 42.3350 -81.8078 34° Northeast 124 143 7,200  Climbing Cleveland Center
Mon 12:13:16 PM 42.3622 -81.7831 34° Northeast 119 137 7,100 -50 Descending Cleveland Center
Mon 12:14:16 PM 42.3917 -81.7528 37° Northeast 126 145 7,100  Level Cleveland Center
Mon 12:16:16 PM 42.4506 -81.7003 33° Northeast 121 139 7,100 33 Level Cleveland Center
Mon 12:17:16 PM 42.4781 -81.6725 37° Northeast 121 139 7,200 50 Climbing Cleveland Center
Mon 12:18:16 PM 42.5053 -81.6506 31° Northeast 121 139 7,200 -50 Level Cleveland Center
Mon 12:19:16 PM 42.5369 -81.6200 35° Northeast 127 146 7,100  Descending Cleveland Center
Mon 12:20:16 PM 42.5642 -81.5922 37° Northeast 122 140 7,200 50 Climbing Cleveland Center
Mon 12:21:16 PM 42.5936 -81.5675 32° Northeast 122 140 7,200  Level Cleveland Center
Mon 12:22:16 PM 42.6231 -81.5397 35° Northeast 122 140 7,200  Level Cleveland Center
Mon 12:23:16 PM 42.6522 -81.5119 35° Northeast 122 140 7,200  Level Cleveland Center
Mon 12:24:16 PM 42.6775 -81.4869 36° Northeast 122 140 7,200  Level Cleveland Center
Mon 12:25:16 PM 42.7069 -81.4619 32° Northeast 122 140 7,200  Level Cleveland Center
Mon 12:26:17 PM 42.7406 -81.4342 31° Northeast 132 152 7,200  Level Cleveland Center
Mon 12:27:16 PM 42.7658 -81.4061 39° Northeast 127 146 7,200  Level Cleveland Center
Mon 12:29:01 PM 42.8000 -81.3333 57° Northeast 130 150 7,200  Level Toronto Center
Mon 12:30:01 PM 42.8333 -81.3167 20° North 130 150 7,200  Level Toronto Center
Mon 12:31:01 PM 42.8667 -81.3000 20° North 130 150 7,200  Level Toronto Center
Mon 12:32:01 PM 42.9000 -81.2500 48° Northeast 130 150 7,200  Level Toronto Center
Mon 12:34:01 PM 42.9500 -81.1833 44° Northeast 130 150 7,200  Level Toronto Center
Mon 12:35:01 PM 42.9833 -81.1667 20° North 130 150 7,200  Level Toronto Center
Mon 12:37:01 PM 43.0333 -81.1000 44° Northeast 130 150 7,200 -133 Level Toronto Center
Mon 12:38:01 PM 43.0667 -81.0667 36° Northeast 130 150 6,800 -400 Descending Toronto Center
Mon 12:39:01 PM 43.0833 -81.0333 56° Northeast 140 161 6,400 -450 Descending Toronto Center
Mon 12:40:01 PM 43.1167 -81.0000 36° Northeast 140 161 5,900 -433 Descending Toronto Center
Mon 12:42:01 PM 43.1833 -80.9333 36° Northeast 130 150 5,100 -267 Descending Toronto Center
Mon 12:43:01 PM 43.2000 -80.8833 65° Northeast 120 138 5,100  Level Toronto Center
Mon 12:44:01 PM 43.2167 -80.8667 36° Northeast 110 127 5,100  Level Toronto Center
Mon 12:45:01 PM 43.2500 -80.8500 20° North 110 127 5,100  Level Toronto Center
Mon 12:46:01 PM 43.2667 -80.8167 56° Northeast 110 127 5,100  Level Toronto Center
Mon 12:47:01 PM 43.3167 -80.8000 14° North 110 127 5,100  Level Toronto Center
Mon 12:48:01 PM 43.3333 -80.7833 36° Northeast 110 127 5,100  Level Toronto Center
Mon 12:49:01 PM 43.3500 -80.7333 65° Northeast 110 127 5,100  Level Toronto Center
Mon 12:50:01 PM 43.3833 -80.7167 20° North 110 127 5,100  Level Toronto Center
Mon 12:51:01 PM 43.4000 -80.6833 55° Northeast 110 127 5,100  Level Toronto Center
Mon 12:53:01 PM 43.4500 -80.6167 44° Northeast 120 138 5,100  Level Toronto Center
Mon 12:54:01 PM 43.4833 -80.6000 20° North 120 138 5,100  Level Toronto Center
Mon 12:55:01 PM 43.5000 -80.5833 36° Northeast 120 138 5,100  Level Toronto Center
Mon 12:56:01 PM 43.5333 -80.5333 47° Northeast 120 138 5,100  Level Toronto Center
Mon 12:57:01 PM 43.5500 -80.5000 55° Northeast 120 138 5,100  Level Toronto Center
Mon 12:58:01 PM 43.5833 -80.4833 20° North 120 138 5,100  Level Toronto Center
Mon 12:59:01 PM 43.6000 -80.4667 36° Northeast 120 138 5,100  Level Toronto Center
Mon 01:00:01 PM 43.6333 -80.4167 47° Northeast 120 138 5,100  Level Toronto Center
Mon 01:01:01 PM 43.6500 -80.4000 36° Northeast 120 138 5,100 -100 Level Toronto Center
Mon 01:02:01 PM 43.6833 -80.3500 47° Northeast 120 138 4,900 -350 Descending Toronto Center
Mon 01:03:01 PM 43.7000 -80.3167 55° Northeast 130 150 4,400 -500 Descending Toronto Center
Mon 01:04:01 PM 43.7167 -80.2833 55° Northeast 130 150 3,900 -500 Descending Toronto Center
Mon 01:05:01 PM 43.7333 -80.2333 65° Northeast 130 150 3,400 -350 Descending Toronto Center
Mon 01:06:01 PM 43.7500 -80.1833 65° Northeast 130 150 3,200 -100 Descending Toronto Center
Mon 01:07:01 PM 43.7667 -80.1333 65° Northeast 120 138 3,200  Level Toronto Center
Mon 01:08:01 PM 43.7833 -80.1000 55° Northeast 120 138 3,200  Level Toronto Center
Mon 01:09:01 PM 43.7833 -80.0667 90° East 110 127 3,200 -50 Level Toronto Center
Mon 01:10:01 PM 43.8000 -80.0333 55° Northeast 120 138 3,100  Descending Toronto Center
Mon 01:12:01 PM 43.8333 -79.9333 65° Northeast 120 138 3,200 25 Climbing Toronto Center
Mon 01:14:01 PM 43.8667 -79.8667 55° Northeast 120 138 3,200  Level Toronto Center
Mon 01:16:00 PM 43.9032 -79.7393 68° East  Level FlightAware Approximate
Mon 01:16:01 PM 43.9000 -79.8000 68° East 120 138 3,200  Level Toronto Center
Mon 01:17:01 PM 43.9167 -79.7500 65° Northeast 120 138 3,200  Level Toronto Center
Mon 01:18:01 PM 43.9333 -79.7000 65° Northeast 120 138 3,200  Level Toronto Center
Mon 01:19:01 PM 43.9333 -79.6500 90° East 120 138 3,200  Level Toronto Center
Mon 01:20:01 PM 43.9333 -79.6167 90° East 120 138 3,200  Level Toronto Center
Mon 01:21:01 PM 43.9333 -79.5667 90° East 120 138 3,200 -250 Level Toronto Center
Mon 01:22:01 PM 43.9167 -79.5167 115° Southeast 130 150 2,700 -400 Descending Toronto Center
Mon 01:23:01 PM 43.9000 -79.4667 115° Southeast 150 173 2,400 -200 Descending Toronto Center
Mon 01:24:01 PM 43.8833 -79.4167 115° Southeast 140 161 2,300 -400 Descending Toronto Center
Mon 01:26:01 PM 43.8333 -79.3500 136° Southeast 100 115 1,200 -550 Descending Toronto Center

Login

Don't have an account? Register now (free) for customized features, flight alerts, and more!